createdAt,value
2022-11-02T00:01:09.476Z,12.76
2022-11-02T00:02:11.145Z,12.78
2022-11-02T00:03:12.982Z,12.81
2022-11-02T00:04:15.484Z,12.86
2022-11-02T00:05:17.130Z,12.90
2022-11-02T00:06:18.675Z,12.90
2022-11-02T00:07:20.291Z,12.87
2022-11-02T00:08:21.796Z,12.89
2022-11-02T00:09:23.300Z,12.89
2022-11-02T00:10:25.529Z,12.89
2022-11-02T00:11:27.126Z,12.89
2022-11-02T00:12:28.619Z,12.90
2022-11-02T00:13:30.169Z,12.91
2022-11-02T00:14:31.681Z,12.92
2022-11-02T00:15:36.203Z,12.97
2022-11-02T00:16:40.066Z,12.99
2022-11-02T00:17:43.918Z,13.02
2022-11-02T00:18:47.742Z,13.02
2022-11-02T00:19:49.560Z,13.00
2022-11-02T00:20:51.712Z,13.02
2022-11-02T00:21:53.534Z,13.06
2022-11-02T00:22:58.710Z,13.04
2022-11-02T00:24:01.220Z,12.92
2022-11-02T00:25:04.786Z,12.80
2022-11-02T00:26:06.373Z,12.73
2022-11-02T00:27:07.967Z,12.64
2022-11-02T00:28:09.711Z,12.62
2022-11-02T00:29:11.309Z,12.64
2022-11-02T00:30:12.869Z,12.64
2022-11-02T00:31:14.369Z,12.67
2022-11-02T00:32:15.927Z,12.70
2022-11-02T00:33:17.482Z,12.67
2022-11-02T00:34:19.177Z,12.63
2022-11-02T00:35:20.678Z,12.64
2022-11-02T00:36:24.816Z,12.65
2022-11-02T00:37:26.496Z,12.64
2022-11-02T00:38:28.102Z,12.68
2022-11-02T00:39:29.627Z,12.71
2022-11-02T00:40:31.432Z,12.75
2022-11-02T00:41:32.929Z,12.79
2022-11-02T00:42:34.441Z,12.82
2022-11-02T00:43:36.021Z,12.83
2022-11-02T00:44:37.573Z,12.85
2022-11-02T00:45:39.225Z,12.86
2022-11-02T00:46:40.746Z,12.83
2022-11-02T00:47:42.271Z,12.79
2022-11-02T00:48:43.784Z,12.81
2022-11-02T00:49:45.343Z,12.83
2022-11-02T00:50:46.861Z,12.83
2022-11-02T00:51:48.375Z,12.86
2022-11-02T00:52:49.908Z,12.82
2022-11-02T00:53:51.510Z,12.80
2022-11-02T00:54:53.038Z,12.83
2022-11-02T00:55:54.639Z,12.80
2022-11-02T00:56:56.444Z,12.81
2022-11-02T00:57:58.276Z,12.84
2022-11-02T00:58:59.780Z,12.83
2022-11-02T01:00:01.617Z,12.86
2022-11-02T01:01:07.450Z,12.89
2022-11-02T01:02:09.251Z,12.92
2022-11-02T01:03:10.879Z,12.95
2022-11-02T01:04:12.429Z,12.98
2022-11-02T01:05:13.972Z,13.01
2022-11-02T01:06:16.186Z,13.04
2022-11-02T01:07:17.712Z,13.07
2022-11-02T01:08:19.223Z,13.09
2022-11-02T01:09:21.707Z,13.10
2022-11-02T01:10:23.654Z,13.11
2022-11-02T01:11:25.241Z,13.12
2022-11-02T01:12:27.249Z,13.14
2022-11-02T01:13:28.766Z,13.16
2022-11-02T01:14:30.613Z,13.11
2022-11-02T01:15:32.139Z,13.01
2022-11-02T01:16:33.746Z,13.01
2022-11-02T01:17:35.370Z,12.99
2022-11-02T01:18:37.118Z,12.99
2022-11-02T01:19:38.657Z,12.97
2022-11-02T01:20:40.228Z,12.96
2022-11-02T01:21:41.726Z,12.91
2022-11-02T01:22:43.229Z,12.89
2022-11-02T01:23:45.003Z,12.89
2022-11-02T01:24:46.534Z,12.90
2022-11-02T01:25:48.127Z,12.92
2022-11-02T01:26:51.832Z,12.94
2022-11-02T01:27:53.502Z,12.95
2022-11-02T01:28:55.252Z,12.96
2022-11-02T01:29:57.125Z,12.98
2022-11-02T01:30:59.560Z,12.97
2022-11-02T01:32:01.155Z,12.96
2022-11-02T01:33:05.680Z,12.91
2022-11-02T01:34:07.744Z,12.91
2022-11-02T01:35:10.405Z,12.92
2022-11-02T01:36:14.041Z,12.93
2022-11-02T01:37:15.631Z,12.94
2022-11-02T01:38:17.191Z,12.96
2022-11-02T01:39:18.740Z,12.96
2022-11-02T01:40:20.228Z,12.96
2022-11-02T01:41:21.886Z,12.95
2022-11-02T01:42:25.487Z,12.95
2022-11-02T01:43:32.643Z,12.97
2022-11-02T01:44:35.656Z,12.96
2022-11-02T01:45:37.215Z,12.96
2022-11-02T01:46:42.991Z,12.97
2022-11-02T01:47:48.519Z,12.97
2022-11-02T01:49:01.365Z,12.97
2022-11-02T01:50:25.766Z,12.94
2022-11-02T01:51:32.314Z,12.90
2022-11-02T01:52:36.450Z,12.88
2022-11-02T01:53:42.833Z,12.88
2022-11-02T01:54:55.999Z,12.89
2022-11-02T01:55:59.078Z,12.90
2022-11-02T01:57:05.063Z,12.89
2022-11-02T01:58:10.086Z,12.93
2022-11-02T01:59:21.898Z,12.90
2022-11-02T02:00:23.661Z,12.88
2022-11-02T02:01:26.098Z,12.90
2022-11-02T02:02:28.845Z,12.93
2022-11-02T02:03:32.643Z,12.90
2022-11-02T02:04:35.179Z,12.92
2022-11-02T02:05:42.009Z,12.90
2022-11-02T02:06:44.350Z,12.91
2022-11-02T02:07:47.580Z,12.92
2022-11-02T02:08:51.332Z,12.96
2022-11-02T02:09:53.170Z,12.97
2022-11-02T02:10:58.444Z,12.98
2022-11-02T02:11:59.991Z,13.01
2022-11-02T02:13:01.806Z,13.00
2022-11-02T02:14:08.209Z,12.98
2022-11-02T02:15:11.866Z,12.97
2022-11-02T02:16:33.491Z,12.94
2022-11-02T02:17:42.815Z,12.90
2022-11-02T02:18:57.236Z,12.86
2022-11-02T02:20:18.282Z,12.82
2022-11-02T02:21:35.197Z,12.71
2022-11-02T02:22:51.886Z,12.55
2022-11-02T02:24:05.789Z,12.47
2022-11-02T02:25:13.121Z,12.09
2022-11-02T02:26:33.464Z,11.78
2022-11-02T02:28:19.601Z,11.43
2022-11-02T02:29:24.555Z,11.23
2022-11-02T02:30:28.962Z,11.21
2022-11-02T02:31:54.171Z,11.17
2022-11-02T02:33:10.517Z,11.14
2022-11-02T02:34:23.319Z,11.07
2022-11-02T02:35:34.099Z,11.13
2022-11-02T02:36:39.587Z,11.13
2022-11-02T02:37:45.338Z,11.15
2022-11-02T02:38:55.698Z,11.20
2022-11-02T02:40:09.023Z,11.29
2022-11-02T02:41:30.831Z,11.40
2022-11-02T02:42:37.767Z,11.49
2022-11-02T02:43:52.371Z,11.53
2022-11-02T02:45:06.467Z,11.58
2022-11-02T02:46:19.583Z,11.58
2022-11-02T02:47:27.768Z,11.64
2022-11-02T02:48:29.640Z,11.69
2022-11-02T02:49:39.160Z,11.73
2022-11-02T02:50:52.836Z,11.74
2022-11-02T02:51:57.510Z,11.76
2022-11-02T02:53:02.342Z,11.80
2022-11-02T02:54:08.727Z,11.81
2022-11-02T02:55:17.343Z,11.85
2022-11-02T02:56:21.703Z,11.88
2022-11-02T02:57:25.498Z,11.90
2022-11-02T02:58:33.000Z,11.92
2022-11-02T02:59:40.178Z,11.95
2022-11-02T03:00:41.960Z,11.91
2022-11-02T03:01:45.578Z,11.87
2022-11-02T03:03:03.384Z,11.83
2022-11-02T03:04:04.935Z,11.80
2022-11-02T03:05:25.965Z,11.80
2022-11-02T03:06:31.646Z,11.67
2022-11-02T03:07:34.502Z,11.57
2022-11-02T03:08:39.041Z,11.55
2022-11-02T03:09:46.101Z,11.60
2022-11-02T03:11:12.006Z,11.64
2022-11-02T03:12:32.400Z,11.66
2022-11-02T03:13:49.432Z,11.61
2022-11-02T03:15:00.111Z,11.54
2022-11-02T03:16:11.237Z,11.49
2022-11-02T03:17:23.091Z,11.47
2022-11-02T03:18:44.820Z,11.54
2022-11-02T03:19:51.516Z,11.55
2022-11-02T03:20:57.488Z,11.59
2022-11-02T03:22:07.082Z,11.60
2022-11-02T03:23:23.865Z,11.61
2022-11-02T03:24:34.541Z,11.64
2022-11-02T03:25:42.931Z,11.63
2022-11-02T03:27:18.395Z,11.61
2022-11-02T03:28:28.437Z,11.58
2022-11-02T03:29:36.769Z,11.54
2022-11-02T03:30:44.774Z,11.57
2022-11-02T03:32:00.270Z,11.59
2022-11-02T03:33:10.957Z,11.59
2022-11-02T03:34:17.917Z,11.57
2022-11-02T03:35:24.838Z,11.59
2022-11-02T03:36:39.142Z,11.61
2022-11-02T03:38:24.059Z,11.67
2022-11-02T03:39:50.848Z,11.70
2022-11-02T03:40:56.917Z,11.69
2022-11-02T03:42:02.206Z,11.67
2022-11-02T03:43:05.625Z,11.66
2022-11-02T03:44:10.890Z,11.61
2022-11-02T03:45:15.315Z,11.48
2022-11-02T03:46:19.175Z,11.21
2022-11-02T03:47:21.480Z,11.13
2022-11-02T03:48:29.579Z,11.02
2022-11-02T03:49:32.826Z,11.02
2022-11-02T03:50:36.719Z,11.01
2022-11-02T03:51:42.691Z,10.98
2022-11-02T03:52:47.059Z,10.92
2022-11-02T03:53:55.034Z,10.84
2022-11-02T03:55:13.754Z,10.85
2022-11-02T03:56:23.422Z,10.86
2022-11-02T03:57:37.657Z,10.91
2022-11-02T03:58:39.262Z,10.96
2022-11-02T03:59:40.774Z,11.00
2022-11-02T04:00:50.428Z,11.03
2022-11-02T04:01:52.793Z,10.94
2022-11-02T04:03:00.402Z,10.90
2022-11-02T04:04:04.498Z,10.91
2022-11-02T04:05:06.364Z,10.92
2022-11-02T04:06:08.809Z,10.88
2022-11-02T04:07:10.733Z,10.92
2022-11-02T04:08:23.363Z,10.93
2022-11-02T04:09:25.507Z,10.95
2022-11-02T04:10:28.015Z,10.97
2022-11-02T04:11:49.643Z,10.91
2022-11-02T04:13:09.882Z,10.98
2022-11-02T04:14:30.773Z,11.04
2022-11-02T04:15:32.410Z,11.08
2022-11-02T04:16:33.995Z,11.10
2022-11-02T04:17:53.850Z,11.12
2022-11-02T04:19:14.234Z,11.10
2022-11-02T04:20:15.904Z,11.11
2022-11-02T04:21:17.394Z,11.13
2022-11-02T04:22:38.457Z,11.14
2022-11-02T04:23:58.368Z,11.13
2022-11-02T04:25:18.968Z,11.05
2022-11-02T04:26:20.653Z,11.06
2022-11-02T04:27:22.210Z,11.08
2022-11-02T04:28:23.844Z,11.11
2022-11-02T04:29:25.352Z,11.09
2022-11-02T04:30:27.174Z,10.99
2022-11-02T04:31:28.690Z,10.96
2022-11-02T04:32:48.674Z,10.99
2022-11-02T04:33:50.183Z,11.01
2022-11-02T04:34:51.695Z,10.97
2022-11-02T04:35:53.263Z,10.99
2022-11-02T04:36:54.762Z,11.00
2022-11-02T04:38:15.769Z,11.02
2022-11-02T04:39:17.704Z,10.99
2022-11-02T04:40:19.261Z,10.99
2022-11-02T04:41:40.857Z,10.99
2022-11-02T04:42:46.983Z,10.99
2022-11-02T04:43:48.523Z,10.87
2022-11-02T04:44:50.012Z,10.86
2022-11-02T04:45:51.515Z,10.86
2022-11-02T04:46:53.136Z,10.90
2022-11-02T04:48:17.143Z,10.90
2022-11-02T04:49:18.767Z,10.93
2022-11-02T04:50:20.326Z,10.96
2022-11-02T04:51:25.624Z,10.98
2022-11-02T04:52:27.130Z,10.99
2022-11-02T04:53:28.675Z,10.99
2022-11-02T04:54:30.191Z,10.95
2022-11-02T04:55:31.791Z,10.96
2022-11-02T04:56:33.479Z,10.96
2022-11-02T04:57:35.330Z,10.97
2022-11-02T04:58:36.846Z,10.99
2022-11-02T04:59:38.363Z,11.08
2022-11-02T05:00:40.134Z,11.13
2022-11-02T05:01:41.790Z,11.15
2022-11-02T05:02:43.710Z,11.23
2022-11-02T05:03:49.146Z,11.35
2022-11-02T05:04:50.662Z,11.36
2022-11-02T05:05:55.649Z,11.38
2022-11-02T05:07:01.300Z,11.40
2022-11-02T05:08:03.569Z,11.42
2022-11-02T05:09:05.384Z,11.43
2022-11-02T05:10:07.299Z,11.43
2022-11-02T05:11:10.465Z,11.43
2022-11-02T05:12:11.989Z,11.43
2022-11-02T05:13:13.523Z,11.43
2022-11-02T05:14:15.145Z,11.45
2022-11-02T05:15:16.659Z,11.45
2022-11-02T05:16:18.225Z,11.43
2022-11-02T05:17:19.735Z,11.40
2022-11-02T05:19:24.173Z,11.35
2022-11-02T05:20:25.795Z,11.31
2022-11-02T05:21:27.375Z,11.28
2022-11-02T05:22:28.899Z,11.11
2022-11-02T05:23:30.466Z,10.99
2022-11-02T05:24:32.524Z,10.86
2022-11-02T05:25:34.465Z,10.83
2022-11-02T05:26:35.994Z,10.88
2022-11-02T05:27:37.912Z,10.88
2022-11-02T05:28:39.535Z,10.87
2022-11-02T05:29:41.071Z,10.82
2022-11-02T05:30:42.625Z,10.72
2022-11-02T05:31:44.253Z,10.53
2022-11-02T05:32:45.796Z,10.41
2022-11-02T05:33:47.408Z,10.27
2022-11-02T05:34:49.033Z,10.15
2022-11-02T05:35:50.736Z,10.04
2022-11-02T05:36:52.291Z,10.00
2022-11-02T05:37:55.503Z,9.99
2022-11-02T05:38:57.164Z,9.93
2022-11-02T05:39:58.731Z,9.93
2022-11-02T05:41:00.443Z,9.92
2022-11-02T05:42:01.935Z,9.96
2022-11-02T05:43:05.152Z,10.02
2022-11-02T05:44:06.949Z,10.01
2022-11-02T05:45:08.872Z,9.97
2022-11-02T05:46:10.475Z,9.98
2022-11-02T05:47:12.015Z,10.00
2022-11-02T05:48:13.534Z,10.11
2022-11-02T05:49:15.068Z,10.22
2022-11-02T05:50:16.633Z,10.27
2022-11-02T05:51:18.167Z,10.25
2022-11-02T05:52:19.713Z,10.26
2022-11-02T05:53:21.253Z,10.26
2022-11-02T05:54:22.866Z,10.24
2022-11-02T05:55:24.994Z,10.32
2022-11-02T05:56:26.631Z,10.36
2022-11-02T05:57:28.173Z,10.38
2022-11-02T05:58:30.341Z,10.44
2022-11-02T05:59:32.007Z,10.51
2022-11-02T06:00:33.560Z,10.62
2022-11-02T06:01:35.137Z,10.73
2022-11-02T06:02:36.788Z,10.79
2022-11-02T06:03:38.372Z,10.86
2022-11-02T06:04:40.052Z,10.87
2022-11-02T06:05:41.680Z,10.84
2022-11-02T06:06:43.961Z,10.74
2022-11-02T06:07:45.489Z,10.67
2022-11-02T06:08:47.022Z,10.62
2022-11-02T06:09:48.546Z,10.56
2022-11-02T06:10:50.131Z,10.45
2022-11-02T06:11:51.689Z,10.42
2022-11-02T06:12:58.080Z,10.46
2022-11-02T06:13:59.835Z,10.30
2022-11-02T06:15:01.442Z,10.35
2022-11-02T06:16:04.632Z,10.55
2022-11-02T06:17:06.141Z,10.69
2022-11-02T06:18:07.953Z,10.89
2022-11-02T06:19:09.549Z,10.86
2022-11-02T06:20:11.523Z,10.69
2022-11-02T06:21:13.085Z,10.53
2022-11-02T06:22:14.618Z,10.60
2022-11-02T06:23:18.170Z,10.55
2022-11-02T06:24:19.692Z,10.60
2022-11-02T06:25:21.250Z,10.66
2022-11-02T06:26:22.785Z,10.66
2022-11-02T06:27:24.289Z,10.72
2022-11-02T06:28:26.442Z,10.85
2022-11-02T06:29:27.979Z,11.01
2022-11-02T06:30:29.532Z,11.16
2022-11-02T06:31:31.055Z,11.36
2022-11-02T06:32:32.643Z,11.41
2022-11-02T06:33:34.142Z,11.44
2022-11-02T06:34:35.648Z,11.51
2022-11-02T06:35:37.187Z,11.58
2022-11-02T06:36:38.726Z,11.68
2022-11-02T06:37:40.238Z,11.70
2022-11-02T06:38:42.180Z,11.78
2022-11-02T06:39:43.749Z,11.85
2022-11-02T06:40:54.043Z,11.83
2022-11-02T06:41:55.550Z,11.67
2022-11-02T06:43:15.383Z,11.57
2022-11-02T06:44:18.281Z,11.47
2022-11-02T06:45:19.807Z,11.40
2022-11-02T06:46:21.487Z,11.43
2022-11-02T06:47:22.998Z,11.57
2022-11-02T06:48:29.840Z,11.62
2022-11-02T06:49:31.530Z,11.80
2022-11-02T06:50:33.040Z,11.95
2022-11-02T06:51:34.555Z,12.06
2022-11-02T06:52:42.374Z,12.24
2022-11-02T06:53:43.956Z,12.38
2022-11-02T06:54:45.454Z,12.55
2022-11-02T06:55:55.518Z,12.72
2022-11-02T06:56:57.088Z,12.63
2022-11-02T06:57:58.591Z,12.66
2022-11-02T06:59:00.169Z,12.77
2022-11-02T07:00:04.995Z,12.98
2022-11-02T07:01:08.029Z,12.98
2022-11-02T07:02:10.105Z,13.03
2022-11-02T07:03:11.704Z,13.12
2022-11-02T07:04:13.499Z,13.27
2022-11-02T07:05:15.150Z,13.45
2022-11-02T07:06:17.089Z,13.63
2022-11-02T07:07:18.651Z,13.66
2022-11-02T07:08:21.365Z,13.60
2022-11-02T07:09:22.890Z,13.77
2022-11-02T07:10:25.111Z,13.87
2022-11-02T07:11:26.716Z,13.74
2022-11-02T07:12:28.419Z,13.73
2022-11-02T07:13:30.142Z,13.89
2022-11-02T07:14:31.696Z,14.00
2022-11-02T07:15:33.277Z,14.12
2022-11-02T07:16:34.804Z,14.15
2022-11-02T07:17:39.991Z,14.26
2022-11-02T07:18:41.644Z,14.34
2022-11-02T07:19:43.269Z,14.25
2022-11-02T07:20:44.866Z,14.30
2022-11-02T07:21:47.800Z,14.41
2022-11-02T07:22:55.049Z,14.44
2022-11-02T07:23:56.579Z,14.55
2022-11-02T07:24:58.219Z,14.70
2022-11-02T07:26:03.311Z,14.77
2022-11-02T07:27:04.843Z,14.88
2022-11-02T07:28:06.405Z,15.03
2022-11-02T07:29:07.920Z,15.13
2022-11-02T07:30:09.682Z,15.23
2022-11-02T07:31:11.260Z,15.15
2022-11-02T07:32:12.783Z,15.09
2022-11-02T07:33:14.414Z,14.92
2022-11-02T07:34:17.288Z,14.53
2022-11-02T07:35:19.367Z,14.37
2022-11-02T07:36:20.906Z,14.48
2022-11-02T07:37:22.445Z,14.57
2022-11-02T07:38:24.012Z,14.73
2022-11-02T07:39:26.235Z,14.81
2022-11-02T07:40:29.404Z,14.72
2022-11-02T07:41:31.232Z,14.88
2022-11-02T07:42:32.783Z,15.11
2022-11-02T07:43:35.287Z,15.34
2022-11-02T07:44:37.494Z,15.46
2022-11-02T07:45:39.007Z,15.42
2022-11-02T07:46:40.525Z,15.30
2022-11-02T07:47:43.984Z,15.35
2022-11-02T07:48:47.313Z,15.57
2022-11-02T07:49:48.871Z,15.80
2022-11-02T07:50:50.390Z,15.97
2022-11-02T07:51:51.909Z,15.76
2022-11-02T07:52:55.874Z,15.43
2022-11-02T07:53:57.948Z,15.19
2022-11-02T07:54:59.451Z,14.99
2022-11-02T07:56:01.334Z,14.68
2022-11-02T07:57:02.982Z,14.55
2022-11-02T07:58:08.044Z,14.48
2022-11-02T07:59:10.783Z,14.69
2022-11-02T08:00:12.625Z,14.89
2022-11-02T08:01:14.476Z,15.17
2022-11-02T08:02:16.110Z,15.39
2022-11-02T08:03:17.726Z,15.23
2022-11-02T08:04:19.422Z,15.19
2022-11-02T08:05:21.051Z,15.41
2022-11-02T08:06:22.581Z,15.65
2022-11-02T08:07:24.135Z,15.83
2022-11-02T08:08:25.703Z,15.97
2022-11-02T08:09:27.307Z,15.91
2022-11-02T08:10:35.347Z,15.76
2022-11-02T08:11:40.461Z,15.78
2022-11-02T08:12:42.006Z,15.84
2022-11-02T08:13:43.536Z,15.80
2022-11-02T08:14:45.066Z,15.94
2022-11-02T08:15:51.130Z,15.78
2022-11-02T08:16:52.735Z,15.63
2022-11-02T08:18:24.490Z,15.95
2022-11-02T08:19:26.048Z,16.10
2022-11-02T08:20:27.644Z,16.16
2022-11-02T08:21:29.178Z,16.37
2022-11-02T08:22:30.696Z,16.61
2022-11-02T08:23:32.217Z,16.43
2022-11-02T08:24:33.715Z,16.46
2022-11-02T08:25:35.907Z,16.66
2022-11-02T08:26:38.756Z,16.73
2022-11-02T08:27:42.579Z,16.58
2022-11-02T08:28:44.180Z,16.58
2022-11-02T08:29:45.731Z,16.62
2022-11-02T08:30:47.340Z,16.57
2022-11-02T08:31:48.911Z,16.46
2022-11-02T08:32:55.481Z,16.23
2022-11-02T08:33:58.738Z,15.77
2022-11-02T08:35:00.268Z,15.63
2022-11-02T08:36:04.613Z,15.76
2022-11-02T08:37:07.985Z,16.04
2022-11-02T08:38:11.146Z,16.28
2022-11-02T08:39:18.489Z,16.33
2022-11-02T08:40:20.815Z,16.38
2022-11-02T08:41:22.453Z,16.49
2022-11-02T08:42:23.991Z,16.74
2022-11-02T08:43:25.781Z,16.90
2022-11-02T08:44:27.284Z,16.73
2022-11-02T08:45:35.132Z,16.65
2022-11-02T08:46:40.224Z,16.83
2022-11-02T08:47:42.535Z,16.93
2022-11-02T08:48:45.275Z,17.13
2022-11-02T08:49:47.191Z,17.28
2022-11-02T08:50:49.374Z,17.38
2022-11-02T08:51:51.028Z,17.60
2022-11-02T08:52:52.785Z,17.70
2022-11-02T08:53:54.428Z,17.68
2022-11-02T08:54:56.030Z,17.79
2022-11-02T08:55:59.078Z,17.36
2022-11-02T08:57:00.595Z,17.37
2022-11-02T08:58:02.446Z,17.53
2022-11-02T08:59:04.154Z,17.39
2022-11-02T09:00:07.124Z,17.33
2022-11-02T09:01:08.710Z,17.46
2022-11-02T09:02:10.458Z,17.65
2022-11-02T09:03:14.007Z,17.58
2022-11-02T09:04:15.564Z,17.48
2022-11-02T09:05:17.176Z,17.44
2022-11-02T09:06:18.766Z,17.34
2022-11-02T09:07:20.304Z,17.37
2022-11-02T09:08:21.868Z,17.52
2022-11-02T09:09:23.425Z,17.67
2022-11-02T09:10:25.358Z,17.78
2022-11-02T09:11:26.903Z,17.96
2022-11-02T09:12:28.498Z,18.09
2022-11-02T09:13:30.315Z,18.25
2022-11-02T09:14:31.926Z,18.47
2022-11-02T09:15:35.528Z,18.62
2022-11-02T09:16:41.268Z,18.59
2022-11-02T09:17:46.603Z,18.34
2022-11-02T09:18:48.153Z,18.25
2022-11-02T09:19:49.692Z,18.32
2022-11-02T09:20:51.462Z,18.48
2022-11-02T09:21:53.137Z,18.55
2022-11-02T09:22:54.686Z,18.53
2022-11-02T09:23:56.206Z,18.38
2022-11-02T09:24:57.709Z,18.43
2022-11-02T09:26:00.183Z,18.55
2022-11-02T09:27:01.712Z,18.61
2022-11-02T09:28:03.387Z,18.42
2022-11-02T09:29:05.101Z,18.28
2022-11-02T09:30:07.675Z,18.29
2022-11-02T09:31:11.572Z,18.31
2022-11-02T09:32:13.501Z,18.61
2022-11-02T09:33:15.381Z,18.70
2022-11-02T09:34:16.961Z,18.52
2022-11-02T09:35:18.534Z,18.49
2022-11-02T09:36:20.093Z,18.52
2022-11-02T09:37:21.623Z,18.46
2022-11-02T09:38:23.219Z,18.53
2022-11-02T09:39:24.971Z,18.68
2022-11-02T09:40:30.289Z,18.78
2022-11-02T09:41:58.866Z,18.99
2022-11-02T09:43:21.867Z,19.21
2022-11-02T09:44:38.297Z,19.22
2022-11-02T09:45:53.430Z,19.21
2022-11-02T09:47:39.632Z,19.33
2022-11-02T09:48:27.863Z,19.56
2022-11-02T09:49:30.930Z,19.78
2022-11-02T09:51:02.224Z,19.94
2022-11-02T09:52:07.446Z,19.94
2022-11-02T09:53:16.791Z,20.09
2022-11-02T09:54:21.078Z,20.23
2022-11-02T09:55:32.206Z,20.31
2022-11-02T09:56:35.419Z,20.38
2022-11-02T09:57:38.893Z,20.30
2022-11-02T09:58:41.251Z,20.19
2022-11-02T09:59:43.014Z,20.16
2022-11-02T10:00:48.880Z,20.08
2022-11-02T10:01:56.916Z,19.76
2022-11-02T10:03:25.409Z,19.55
2022-11-02T10:04:42.831Z,19.53
2022-11-02T10:06:11.239Z,19.64
2022-11-02T10:07:25.027Z,19.61
2022-11-02T10:08:32.662Z,19.47
2022-11-02T10:09:44.230Z,19.49
2022-11-02T10:10:53.395Z,19.49
2022-11-02T10:12:09.874Z,19.37
2022-11-02T10:13:38.633Z,19.47
2022-11-02T10:14:55.831Z,19.49
2022-11-02T10:16:03.559Z,19.38
2022-11-02T10:17:17.427Z,19.52
2022-11-02T10:18:24.061Z,19.58
2022-11-02T10:19:30.310Z,19.66
2022-11-02T10:20:41.813Z,19.79
2022-11-02T10:21:47.686Z,19.90
2022-11-02T10:22:49.319Z,20.09
2022-11-02T10:23:55.125Z,20.20
2022-11-02T10:24:58.335Z,20.30
2022-11-02T10:26:01.827Z,20.38
2022-11-02T10:27:14.251Z,20.37
2022-11-02T10:28:21.151Z,20.47
2022-11-02T10:29:51.452Z,20.57
2022-11-02T10:30:54.376Z,20.65
2022-11-02T10:31:56.025Z,20.72
2022-11-02T10:32:57.772Z,20.58
2022-11-02T10:34:14.142Z,20.35
2022-11-02T10:35:41.109Z,20.33
2022-11-02T10:36:58.191Z,20.47
2022-11-02T10:38:27.724Z,20.42
2022-11-02T10:39:53.492Z,20.26
2022-11-02T10:41:16.296Z,20.31
2022-11-02T10:42:44.018Z,20.34
2022-11-02T10:44:13.616Z,20.32
2022-11-02T10:45:52.014Z,20.29
2022-11-02T10:46:53.632Z,20.35
2022-11-02T10:48:13.510Z,20.42
2022-11-02T10:49:23.030Z,20.56
2022-11-02T10:50:44.731Z,20.61
2022-11-02T10:51:46.307Z,20.63
2022-11-02T10:52:48.075Z,20.60
2022-11-02T10:53:51.894Z,20.60
2022-11-02T10:54:53.557Z,20.60
2022-11-02T10:56:10.935Z,20.65
2022-11-02T10:57:14.076Z,20.71
2022-11-02T10:58:19.507Z,20.77
2022-11-02T10:59:25.784Z,20.79
2022-11-02T11:00:31.772Z,20.75
2022-11-02T11:01:33.726Z,20.69
2022-11-02T11:02:35.327Z,20.67
2022-11-02T11:04:11.150Z,20.62
2022-11-02T11:05:14.320Z,20.72
2022-11-02T11:06:15.959Z,20.80
2022-11-02T11:07:26.124Z,20.81
2022-11-02T11:08:44.267Z,20.71
2022-11-02T11:09:50.289Z,20.68
2022-11-02T11:10:52.129Z,20.66
2022-11-02T11:12:03.493Z,20.61
2022-11-02T11:13:07.767Z,20.57
2022-11-02T11:15:49.041Z,20.67
2022-11-02T11:16:55.114Z,20.62
2022-11-02T11:20:43.041Z,20.62
2022-11-02T11:21:45.020Z,20.64
2022-11-02T11:22:46.575Z,20.68
2022-11-02T11:23:48.100Z,20.77
2022-11-02T11:24:49.714Z,20.83
2022-11-02T11:26:26.577Z,20.99
2022-11-02T11:27:28.159Z,21.02
2022-11-02T11:28:52.930Z,21.07
2022-11-02T11:29:58.159Z,21.16
2022-11-02T11:31:08.301Z,21.22
2022-11-02T11:32:19.708Z,21.33
2022-11-02T11:33:22.987Z,21.35
2022-11-02T11:34:28.563Z,21.35
2022-11-02T11:35:34.633Z,21.29
2022-11-02T11:36:36.737Z,21.23
2022-11-02T11:37:58.052Z,21.23
2022-11-02T11:39:02.181Z,21.25
2022-11-02T11:40:14.908Z,21.35
2022-11-02T11:41:17.808Z,21.39
2022-11-02T11:42:25.355Z,21.43
2022-11-02T11:43:30.563Z,21.50
2022-11-02T11:44:32.902Z,21.57
2022-11-02T11:45:34.523Z,21.57
2022-11-02T11:46:42.038Z,21.61
2022-11-02T11:47:43.753Z,21.61
2022-11-02T11:48:50.587Z,21.55
2022-11-02T11:50:11.205Z,21.55
2022-11-02T11:51:30.161Z,21.63
2022-11-02T11:52:33.649Z,21.63
2022-11-02T11:53:35.610Z,21.64
2022-11-02T11:54:38.312Z,21.69
2022-11-02T11:55:48.974Z,21.74
2022-11-02T11:56:53.406Z,21.76
2022-11-02T11:58:14.668Z,21.75
2022-11-02T11:59:22.298Z,21.74
2022-11-02T12:00:29.073Z,21.79
2022-11-02T12:01:40.031Z,21.82
2022-11-02T12:02:44.754Z,21.88
2022-11-02T12:03:55.477Z,21.93
2022-11-02T12:05:13.290Z,21.95
2022-11-02T12:06:25.331Z,21.94
2022-11-02T12:07:38.583Z,21.97
2022-11-02T12:09:07.530Z,22.04
2022-11-02T12:10:21.907Z,22.08
2022-11-02T12:11:31.978Z,22.03
2022-11-02T12:13:14.892Z,22.04
2022-11-02T12:14:16.374Z,22.08
2022-11-02T12:15:39.742Z,22.09
2022-11-02T12:17:16.285Z,22.04
2022-11-02T12:18:48.965Z,22.08
2022-11-02T12:19:50.533Z,22.02
2022-11-02T12:21:33.782Z,22.04
2022-11-02T12:22:43.924Z,22.09
2022-11-02T12:23:57.692Z,22.15
2022-11-02T12:25:34.673Z,22.16
2022-11-02T12:27:29.285Z,22.21
2022-11-02T12:29:01.414Z,22.24
2022-11-02T12:30:15.191Z,22.31
2022-11-02T12:31:24.517Z,22.36
2022-11-02T12:32:47.941Z,22.38
2022-11-02T12:34:24.727Z,22.35
2022-11-02T12:35:54.418Z,22.36
2022-11-02T12:38:44.739Z,22.38
2022-11-02T12:40:22.086Z,22.44
2022-11-02T12:41:55.590Z,22.47
2022-11-02T12:43:02.651Z,22.49
2022-11-02T12:44:29.250Z,22.50
2022-11-02T12:45:42.792Z,22.45
2022-11-02T12:46:56.459Z,22.43
2022-11-02T12:47:59.620Z,22.49
2022-11-02T12:49:36.661Z,22.57
2022-11-02T12:50:50.267Z,22.60
2022-11-02T12:52:12.716Z,22.62
2022-11-02T12:53:35.443Z,22.72
2022-11-02T12:54:49.339Z,22.81
2022-11-02T12:55:56.946Z,22.80
2022-11-02T12:56:58.954Z,22.80
2022-11-02T12:58:06.881Z,22.82
2022-11-02T12:59:16.679Z,22.83
2022-11-02T13:00:21.823Z,22.83
2022-11-02T13:01:32.594Z,22.79
2022-11-02T13:02:49.470Z,22.78
2022-11-02T13:04:01.881Z,22.82
2022-11-02T13:05:15.118Z,22.83
2022-11-02T13:06:23.146Z,22.82
2022-11-02T13:07:52.787Z,22.81
2022-11-02T13:09:13.096Z,22.79
2022-11-02T13:10:26.451Z,22.79
2022-11-02T13:11:37.782Z,22.76
2022-11-02T13:12:39.592Z,22.78
2022-11-02T13:13:47.871Z,22.79
2022-11-02T13:14:56.222Z,22.86
2022-11-02T13:15:59.870Z,22.92
2022-11-02T13:17:09.719Z,22.97
2022-11-02T13:18:32.916Z,23.02
2022-11-02T13:20:02.030Z,23.04
2022-11-02T13:21:05.154Z,23.05
2022-11-02T13:22:10.845Z,23.06
2022-11-02T13:23:34.307Z,23.02
2022-11-02T13:24:52.194Z,22.99
2022-11-02T13:26:00.204Z,23.02
2022-11-02T13:27:21.800Z,23.05
2022-11-02T13:28:33.982Z,23.04
2022-11-02T13:29:41.962Z,23.07
2022-11-02T13:30:45.197Z,23.13
2022-11-02T13:32:17.837Z,23.16
2022-11-02T13:33:48.959Z,23.20
2022-11-02T13:34:54.012Z,23.20
2022-11-02T13:35:55.554Z,23.21
2022-11-02T13:36:57.175Z,23.23
2022-11-02T13:38:29.807Z,23.25
2022-11-02T13:39:45.268Z,23.25
2022-11-02T13:40:54.635Z,23.23
2022-11-02T13:42:16.507Z,23.25
2022-11-02T13:43:21.010Z,23.28
2022-11-02T13:44:28.245Z,23.33
2022-11-02T13:45:45.412Z,23.33
2022-11-02T13:46:58.559Z,23.33
2022-11-02T13:48:19.150Z,23.34
2022-11-02T13:49:26.391Z,23.36
2022-11-02T13:50:33.078Z,23.41
2022-11-02T13:51:40.439Z,23.37
2022-11-02T13:53:17.001Z,23.34
2022-11-02T13:54:30.282Z,23.28
2022-11-02T13:55:46.729Z,23.27
2022-11-02T13:56:53.848Z,23.25
2022-11-02T13:57:58.156Z,23.25
2022-11-02T13:59:18.980Z,23.21
2022-11-02T14:00:23.227Z,23.26
2022-11-02T14:01:27.825Z,23.27
2022-11-02T14:02:35.046Z,23.30
2022-11-02T14:03:56.051Z,23.34
2022-11-02T14:05:01.204Z,23.32
2022-11-02T14:06:11.547Z,23.33
2022-11-02T14:07:40.395Z,23.29
2022-11-02T14:08:59.580Z,23.22
2022-11-02T14:10:15.702Z,23.24
2022-11-02T14:11:17.187Z,23.24
2022-11-02T14:12:21.672Z,23.21
2022-11-02T14:13:52.389Z,23.28
2022-11-02T14:15:12.347Z,23.30
2022-11-02T14:16:42.675Z,23.21
2022-11-02T14:17:53.476Z,23.15
2022-11-02T14:19:19.382Z,23.20
2022-11-02T14:20:39.878Z,23.24
2022-11-02T14:21:52.664Z,23.27
2022-11-02T14:23:09.110Z,23.25
2022-11-02T14:24:32.478Z,23.27
2022-11-02T14:25:54.389Z,23.29
2022-11-02T14:26:57.378Z,23.33
2022-11-02T14:28:29.270Z,23.33
2022-11-02T14:29:44.873Z,23.34
2022-11-02T14:30:49.025Z,23.32
2022-11-02T14:31:57.431Z,23.30